Time;durP1;ratioP1;P1;durP2;ratioP2;P2;SDS_P1;SDS_P2;PMS_P1;PMS_P2;Temp;Humidity;BMP_temperature;BMP_pressure;BME280_temperature;BME280_humidity;BME280_pressure;Samples;Min_cycle;Max_cycle;Signal;HPM_P1;HPM_P2
2023/08/15 14:18:27;;;;;;;23.45;4.75;;;;;;;27.74;75.09;101289.63;4944160;27;20467;-87
2023/08/15 14:20:53;;;;;;;28.77;5.05;;;;;;;27.90;73.95;101293.88;5015708;28;20050;-87
2023/08/15 14:23:18;;;;;;;25.88;5.03;;;;;;;27.59;72.85;101284.31;5032161;28;20048;-86
2023/08/15 14:25:43;;;;;;;19.90;4.70;;;;;;;27.63;73.63;101291.19;5037619;28;20033;-86
2023/08/15 14:28:09;;;;;;;20.65;4.78;;;;;;;27.73;74.27;101290.69;5029232;28;20037;-86
2023/08/15 14:30:36;;;;;;;22.85;4.90;;;;;;;27.42;72.44;101284.81;4998671;28;20026;-86
2023/08/15 14:33:01;;;;;;;17.75;4.80;;;;;;;27.40;77.09;101291.72;5013790;28;20484;-86
2023/08/15 14:35:27;;;;;;;21.33;5.13;;;;;;;27.58;74.62;101291.88;5009249;28;20091;-86
2023/08/15 14:37:53;;;;;;;25.27;4.57;;;;;;;27.45;73.06;101292.81;5025048;28;20036;-87
2023/08/15 14:40:20;;;;;;;28.60;5.22;;;;;;;27.22;75.34;101292.41;5019648;28;20037;-81
2023/08/15 14:42:47;;;;;;;25.17;4.90;;;;;;;27.08;76.09;101285.97;5027361;28;20033;-81
2023/08/15 14:45:13;;;;;;;26.20;5.55;;;;;;;27.26;77.94;101291.75;5033212;28;20080;-80
2023/08/15 14:47:39;;;;;;;19.77;5.43;;;;;;;27.48;77.42;101280.22;5032303;28;20018;-81
2023/08/15 14:50:06;;;;;;;21.05;5.65;;;;;;;27.35;77.43;101285.91;5026260;28;20153;-81
2023/08/15 14:52:31;;;;;;;28.77;5.50;;;;;;;27.04;81.14;101279.06;5005968;28;20479;-80
2023/08/15 14:54:57;;;;;;;30.40;5.63;;;;;;;27.12;81.87;101287.25;5003463;28;20096;-79
2023/08/15 14:57:22;;;;;;;29.20;5.45;;;;;;;27.11;83.89;101285.53;5038286;28;20625;-80
2023/08/15 14:59:50;;;;;;;28.90;5.38;;;;;;;27.26;81.95;101286.13;4999308;28;20504;-80
2023/08/15 15:02:16;;;;;;;27.92;5.82;;;;;;;27.19;76.88;101285.31;5025636;28;20103;-80
2023/08/15 15:04:42;;;;;;;35.13;4.85;;;;;;;27.17;79.12;101281.84;5028539;28;21196;-81
2023/08/15 15:07:09;;;;;;;18.77;5.03;;;;;;;27.09;79.65;101279.28;5014380;28;20032;-80
2023/08/15 15:09:36;;;;;;;22.45;5.65;;;;;;;26.82;79.17;101272.88;5022470;28;20040;-80
2023/08/15 15:12:03;;;;;;;24.55;5.28;;;;;;;26.82;81.87;101281.28;5021386;28;20029;-80
2023/08/15 15:14:29;;;;;;;25.67;5.43;;;;;;;26.92;81.30;101274.13;5027872;28;20053;-80
2023/08/15 15:16:55;;;;;;;25.85;5.20;;;;;;;26.90;82.16;101272.63;5034591;28;20155;-80
2023/08/15 15:19:22;;;;;;;16.58;4.57;;;;;;;26.98;78.70;101286.44;5020318;28;20041;-80
2023/08/15 15:21:52;;;;;;;22.63;4.75;;;;;;;27.12;77.44;101287.25;5034819;28;20033;-80
2023/08/15 15:24:17;;;;;;;23.75;4.85;;;;;;;26.85;80.02;101278.91;5025629;28;20034;-81
2023/08/15 15:26:44;;;;;;;20.02;5.07;;;;;;;26.51;79.16;101280.84;5002028;28;20221;-80
2023/08/15 15:29:09;;;;;;;23.08;4.32;;;;;;;26.73;77.72;101287.16;5013092;28;20034;-80
2023/08/15 15:31:37;;;;;;;15.13;4.35;;;;;;;26.65;76.98;101287.38;4987219;28;20050;-80
2023/08/15 15:34:03;;;;;;;21.33;5.20;;;;;;;26.79;76.70;101288.19;4985498;28;20460;-80
2023/08/15 15:36:28;;;;;;;22.98;4.68;;;;;;;26.81;78.79;101294.50;5026917;28;20475;-80
2023/08/15 15:38:54;;;;;;;18.98;4.32;;;;;;;27.04;79.91;101290.31;4999135;28;20046;-80
2023/08/15 15:41:20;;;;;;;20.95;4.63;;;;;;;27.13;80.25;101298.28;5011515;28;20030;-80
2023/08/15 15:43:45;;;;;;;19.40;4.50;;;;;;;27.34;78.50;101295.47;5018220;28;20054;-80
2023/08/15 15:46:14;;;;;;;21.88;4.97;;;;;;;27.23;79.58;101297.81;5010131;28;20053;-80
2023/08/15 15:48:45;;;;;;;24.23;3.88;;;;;;;27.12;80.09;101298.50;5009260;28;20053;-92
2023/08/15 15:51:12;;;;;;;17.00;4.63;;;;;;;27.14;79.12;101308.44;5026445;28;20039;-87
2023/08/15 15:53:38;;;;;;;17.60;5.10;;;;;;;26.75;81.99;101303.78;4972125;28;20041;-85
2023/08/15 15:56:05;;;;;;;16.63;4.95;;;;;;;26.38;84.13;101301.41;5006214;28;20046;-85
2023/08/15 15:58:30;;;;;;;27.02;5.63;;;;;;;26.15;89.13;101298.13;4994272;28;20049;-86
2023/08/15 16:00:59;;;;;;;25.42;6.65;;;;;;;26.29;89.76;101301.81;4995066;28;20050;-85
2023/08/15 16:03:26;;;;;;;37.08;6.95;;;;;;;26.01;95.28;101300.06;5007559;28;20029;-86
2023/08/15 16:05:52;;;;;;;40.75;9.52;;;;;;;25.73;97.63;101301.03;4994470;28;20095;-86
2023/08/15 16:08:19;;;;;;;38.05;10.52;;;;;;;25.45;100.00;101299.22;5002077;28;20129;-87
2023/08/15 16:10:45;;;;;;;32.40;11.35;;;;;;;25.24;100.00;101290.91;4992601;28;20030;-87
2023/08/15 16:13:11;;;;;;;39.95;11.55;;;;;;;25.23;100.00;101304.03;4997218;28;20045;-88
2023/08/15 16:15:37;;;;;;;44.25;13.00;;;;;;;25.21;100.00;101300.56;5016304;28;20476;-88
2023/08/15 16:18:03;;;;;;;45.45;12.45;;;;;;;25.33;100.00;101312.09;5000639;28;20077;-91
2023/08/15 16:20:29;;;;;;;37.17;12.50;;;;;;;25.25;100.00;101306.63;5023057;28;20194;-91
2023/08/15 16:22:56;;;;;;;40.67;12.30;;;;;;;25.37;100.00;101312.56;5018021;28;20032;-89
2023/08/15 16:25:22;;;;;;;38.72;13.02;;;;;;;25.38;100.00;101309.53;5014195;28;20038;-89
2023/08/15 16:27:48;;;;;;;39.75;12.93;;;;;;;25.36;100.00;101308.88;4981035;28;20492;-91
2023/08/15 16:30:13;;;;;;;42.45;13.55;;;;;;;25.21;100.00;101314.59;4999043;28;20044;-86
2023/08/15 16:32:39;;;;;;;38.15;14.93;;;;;;;25.11;100.00;101309.34;5011078;28;20152;-86
2023/08/15 16:35:05;;;;;;;41.85;13.18;;;;;;;25.11;100.00;101314.09;5014076;28;20049;-88
2023/08/15 16:37:31;;;;;;;40.08;13.20;;;;;;;25.12;100.00;101315.81;4991265;28;20026;-87
2023/08/15 16:39:56;;;;;;;36.58;14.40;;;;;;;25.00;100.00;101307.13;4999360;28;20551;-86
2023/08/15 16:42:23;;;;;;;45.67;13.85;;;;;;;24.83;100.00;101320.59;5008402;28;20029;-86
2023/08/15 16:44:48;;;;;;;34.88;13.82;;;;;;;24.87;100.00;101318.25;5017777;28;20037;-85
2023/08/15 16:47:14;;;;;;;41.40;13.30;;;;;;;24.94;100.00;101313.56;4996374;28;20038;-86
2023/08/15 16:49:41;;;;;;;39.53;12.90;;;;;;;24.93;100.00;101312.69;5008627;28;20403;-87
2023/08/15 16:52:06;;;;;;;44.33;13.35;;;;;;;24.82;100.00;101304.00;4978530;28;20041;-87
2023/08/15 16:54:32;;;;;;;40.67;14.10;;;;;;;24.92;100.00;101313.78;5023048;28;20025;-87
2023/08/15 16:56:57;;;;;;;44.70;13.93;;;;;;;24.81;100.00;101321.88;4994980;28;20057;-86
2023/08/15 16:59:23;;;;;;;25.42;12.95;;;;;;;24.88;100.00;101320.00;4993008;28;20109;-81
2023/08/15 17:01:48;;;;;;;34.13;13.50;;;;;;;24.92;100.00;101312.91;4990006;28;20091;-81
2023/08/15 17:04:15;;;;;;;33.10;13.10;;;;;;;24.99;100.00;101325.03;5000925;28;20624;-81
2023/08/15 17:06:40;;;;;;;35.22;12.48;;;;;;;25.03;100.00;101329.13;5000692;28;20404;-80
2023/08/15 17:09:06;;;;;;;27.95;11.35;;;;;;;25.03;100.00;101334.75;4971359;28;20484;-81
2023/08/15 17:11:32;;;;;;;34.65;11.27;;;;;;;25.08;100.00;101340.59;5016007;28;20034;-80
2023/08/15 17:13:58;;;;;;;32.55;11.90;;;;;;;24.93;100.00;101337.91;4993705;28;20022;-81
2023/08/15 17:16:23;;;;;;;43.63;17.60;;;;;;;24.82;100.00;101340.41;5009954;28;20042;-81
2023/08/15 17:18:51;;;;;;;41.40;14.77;;;;;;;24.85;100.00;101340.00;5010241;28;20050;-81
2023/08/15 17:21:16;;;;;;;38.63;17.55;;;;;;;24.77;100.00;101341.88;5010155;28;20038;-79
2023/08/15 17:23:42;;;;;;;39.92;18.63;;;;;;;24.90;100.00;101354.28;4996436;28;20414;-80
2023/08/15 17:26:07;;;;;;;36.17;13.85;;;;;;;24.92;100.00;101341.81;5016844;28;20029;-80
2023/08/15 17:28:33;;;;;;;33.67;11.63;;;;;;;24.68;100.00;101351.53;4986660;28;20032;-80
2023/08/15 17:30:58;;;;;;;29.25;11.65;;;;;;;24.75;100.00;101349.63;4991171;28;20036;-83
2023/08/15 17:33:25;;;;;;;29.77;13.00;;;;;;;24.53;100.00;101357.19;5007931;28;20034;-80
2023/08/15 17:35:50;;;;;;;38.55;10.75;;;;;;;24.45;100.00;101356.44;4981269;28;20431;-80
2023/08/15 17:38:16;;;;;;;28.45;11.25;;;;;;;24.45;100.00;101362.03;5001698;28;20034;-79
2023/08/15 17:40:41;;;;;;;23.42;10.63;;;;;;;24.13;100.00;101358.72;5011058;28;20041;-79
2023/08/15 17:43:07;;;;;;;28.67;10.45;;;;;;;24.09;100.00;101360.16;5009345;28;20037;-80
2023/08/15 17:45:32;;;;;;;22.65;9.88;;;;;;;24.07;100.00;101365.09;5005768;28;20034;-79
2023/08/15 17:47:58;;;;;;;27.33;9.55;;;;;;;23.98;100.00;101354.03;4982640;28;20076;-80
2023/08/15 17:50:23;;;;;;;36.10;12.13;;;;;;;23.84;100.00;101361.41;4993299;28;20052;-80
2023/08/15 17:52:49;;;;;;;27.50;12.30;;;;;;;23.81;100.00;101366.50;4988858;28;20041;-80
2023/08/15 17:55:14;;;;;;;33.05;10.55;;;;;;;23.84;100.00;101369.81;5010315;28;20049;-80
2023/08/15 17:57:41;;;;;;;25.50;11.30;;;;;;;23.71;100.00;101369.63;5013838;28;20042;-80
2023/08/15 18:00:09;;;;;;;32.30;10.50;;;;;;;23.64;100.00;101371.44;5019896;28;20034;-80
2023/08/15 18:02:35;;;;;;;26.85;10.10;;;;;;;23.65;100.00;101362.88;4989879;28;20038;-80
2023/08/15 18:05:02;;;;;;;25.65;9.73;;;;;;;23.62;100.00;101366.03;5002687;28;20476;-80
2023/08/15 18:07:27;;;;;;;20.55;8.77;;;;;;;23.48;100.00;101372.53;4975944;28;20014;-80
2023/08/15 18:09:53;;;;;;;22.30;9.70;;;;;;;23.47;100.00;101376.41;4986019;28;20042;-80
2023/08/15 18:12:18;;;;;;;24.30;9.23;;;;;;;23.44;100.00;101386.03;5002923;28;20026;-80
2023/08/15 18:14:44;;;;;;;26.85;9.18;;;;;;;23.48;100.00;101381.78;5005060;28;20038;-80
2023/08/15 18:17:10;;;;;;;25.35;8.68;;;;;;;23.40;100.00;101389.38;5002307;28;20128;-80
2023/08/15 18:19:35;;;;;;;23.77;9.30;;;;;;;23.41;100.00;101389.19;5008391;28;20034;-80
2023/08/15 18:22:01;;;;;;;28.42;10.10;;;;;;;23.49;100.00;101396.63;4992633;28;20026;-81
2023/08/15 18:24:26;;;;;;;25.17;8.27;;;;;;;23.53;100.00;101392.41;4984184;28;20398;-81
2023/08/15 18:26:52;;;;;;;19.25;9.88;;;;;;;23.59;100.00;101404.72;4998268;28;20068;-81
2023/08/15 18:29:17;;;;;;;21.80;8.63;;;;;;;23.35;100.00;101395.59;5009405;28;20472;-81
2023/08/15 18:31:45;;;;;;;20.77;8.32;;;;;;;23.31;100.00;101405.41;4968132;28;20060;-80
2023/08/15 18:34:11;;;;;;;17.25;7.65;;;;;;;23.13;100.00;101402.97;4986538;28;20045;-81
2023/08/15 18:36:37;;;;;;;22.30;8.52;;;;;;;23.10;100.00;101409.84;4994804;28;21548;-80
2023/08/15 18:39:08;;;;;;;18.23;7.80;;;;;;;23.01;100.00;101410.94;4990837;28;20096;-79
2023/08/15 18:41:34;;;;;;;21.63;8.40;;;;;;;22.91;100.00;101413.13;5019422;28;20657;-80
2023/08/15 18:44:01;;;;;;;20.08;8.55;;;;;;;22.82;100.00;101414.25;4986372;28;20301;-81
2023/08/15 18:46:26;;;;;;;32.92;8.57;;;;;;;22.82;100.00;101417.06;4990408;28;20030;-81
2023/08/15 18:48:53;;;;;;;29.13;8.63;;;;;;;22.82;100.00;101420.69;4990495;28;20045;-81
2023/08/15 18:51:19;;;;;;;23.70;8.63;;;;;;;22.76;100.00;101424.28;4988029;28;20092;-81
2023/08/15 18:53:44;;;;;;;26.13;7.75;;;;;;;22.63;100.00;101426.81;4995031;28;20041;-81
2023/08/15 18:56:10;;;;;;;24.77;7.40;;;;;;;22.54;100.00;101426.88;4987199;28;20033;-81
2023/08/15 18:58:35;;;;;;;14.68;6.25;;;;;;;22.50;100.00;101433.91;5015103;28;20041;-80
2023/08/15 19:01:02;;;;;;;17.63;6.63;;;;;;;22.54;100.00;101442.75;5027827;28;20079;-80
2023/08/15 19:03:28;;;;;;;22.17;7.72;;;;;;;22.46;100.00;101445.59;5014803;28;20113;-80
2023/08/15 19:05:53;;;;;;;29.80;7.97;;;;;;;22.37;100.00;101447.59;4995492;28;20341;-81
2023/08/15 19:08:19;;;;;;;31.70;8.35;;;;;;;22.39;100.00;101449.13;4988062;28;20022;-81
2023/08/15 19:10:45;;;;;;;25.17;7.90;;;;;;;22.25;100.00;101452.72;4998682;28;20167;-81
2023/08/15 19:13:10;;;;;;;19.52;7.45;;;;;;;22.23;100.00;101463.16;4994883;28;20116;-81
2023/08/15 19:15:40;;;;;;;24.58;8.05;;;;;;;22.11;100.00;101462.72;4994602;28;20038;-81
2023/08/15 19:18:08;;;;;;;28.33;8.48;;;;;;;22.08;100.00;101457.50;5000797;28;20048;-81
2023/08/15 19:20:33;;;;;;;33.47;7.63;;;;;;;22.00;100.00;101477.91;4997786;28;20043;-87
2023/08/15 19:22:58;;;;;;;19.02;7.18;;;;;;;22.11;100.00;101484.16;5022953;28;20116;-86
2023/08/15 19:25:24;;;;;;;16.88;6.30;;;;;;;22.02;100.00;101486.09;5000580;28;20107;-87
2023/08/15 19:27:52;;;;;;;15.07;6.53;;;;;;;21.92;100.00;101494.69;4993158;28;20503;-86
2023/08/15 19:30:17;;;;;;;15.48;6.38;;;;;;;21.74;100.00;101489.38;5012652;28;20151;-86
2023/08/15 19:32:43;;;;;;;22.55;6.90;;;;;;;21.66;100.00;101493.06;4990713;28;20500;-86
2023/08/15 19:35:09;;;;;;;22.75;6.60;;;;;;;21.72;100.00;101497.03;5010733;28;20531;-86
2023/08/15 19:37:35;;;;;;;19.92;6.57;;;;;;;21.66;100.00;101504.22;5026988;28;20044;-86
2023/08/15 19:40:01;;;;;;;23.73;6.95;;;;;;;21.63;100.00;101498.13;5026157;28;20033;-85
2023/08/15 19:42:27;;;;;;;24.83;6.38;;;;;;;21.48;100.00;101503.56;5011184;28;20034;-86
2023/08/15 19:44:53;;;;;;;15.48;6.15;;;;;;;21.48;100.00;101515.56;5006875;28;20555;-84
2023/08/15 19:47:19;;;;;;;20.50;6.57;;;;;;;21.39;100.00;101511.03;5012671;28;20029;-85
2023/08/15 19:49:44;;;;;;;21.20;6.10;;;;;;;21.38;100.00;101516.75;5019291;28;20399;-85
2023/08/15 19:52:10;;;;;;;24.63;6.50;;;;;;;21.39;100.00;101504.59;4988259;28;20487;-86
2023/08/15 19:54:35;;;;;;;26.80;8.25;;;;;;;21.39;100.00;101512.94;5018328;28;20518;-86
2023/08/15 19:57:02;;;;;;;20.55;7.20;;;;;;;21.30;100.00;101521.31;5019132;28;20038;-85
2023/08/15 19:59:27;;;;;;;27.30;7.93;;;;;;;21.17;100.00;101520.97;5022200;28;20033;-86
2023/08/15 20:01:53;;;;;;;21.67;9.02;;;;;;;21.04;100.00;101521.50;4998910;28;20033;-85
2023/08/15 20:04:20;;;;;;;23.38;8.45;;;;;;;21.01;100.00;101526.56;5013034;28;20029;-84
2023/08/15 20:06:46;;;;;;;16.00;8.50;;;;;;;21.16;100.00;101529.50;4994320;28;20038;-84
2023/08/15 20:09:11;;;;;;;27.50;9.18;;;;;;;21.03;100.00;101530.88;5009694;28;20434;-85
2023/08/15 20:11:37;;;;;;;31.08;9.18;;;;;;;20.96;100.00;101535.44;5018517;28;20041;-84
2023/08/15 20:14:03;;;;;;;29.92;8.90;;;;;;;21.12;100.00;101537.34;5014160;28;20038;-84
2023/08/15 20:16:28;;;;;;;24.02;8.77;;;;;;;21.06;100.00;101541.69;5025794;28;20573;-85
2023/08/15 20:18:55;;;;;;;31.20;8.32;;;;;;;21.05;100.00;101542.75;4994717;28;20050;-85
2023/08/15 20:21:21;;;;;;;25.63;7.55;;;;;;;21.08;100.00;101541.50;5011887;28;20038;-86
2023/08/15 20:23:46;;;;;;;23.80;7.95;;;;;;;21.01;100.00;101540.47;4992436;28;20989;-86
2023/08/15 20:26:12;;;;;;;22.85;7.55;;;;;;;20.92;100.00;101543.25;5007739;28;20405;-86
2023/08/15 20:28:37;;;;;;;27.40;7.40;;;;;;;21.04;100.00;101535.44;5022452;28;20037;-85
2023/08/15 20:31:04;;;;;;;28.60;7.53;;;;;;;21.14;100.00;101543.59;5015175;28;20737;-82
2023/08/15 20:33:32;;;;;;;24.60;8.10;;;;;;;20.98;100.00;101543.59;5006578;28;20053;-83
2023/08/15 20:35:57;;;;;;;34.17;8.70;;;;;;;20.87;100.00;101534.56;5010744;28;20034;-84
2023/08/15 20:38:23;;;;;;;18.83;7.55;;;;;;;20.87;100.00;101542.03;5020088;28;20040;-84
2023/08/15 20:40:48;;;;;;;19.30;7.68;;;;;;;20.95;100.00;101539.25;5004207;28;20026;-83
2023/08/15 20:43:14;;;;;;;21.48;7.50;;;;;;;20.84;100.00;101534.91;4994749;28;20029;-84
2023/08/15 20:45:42;;;;;;;28.30;7.43;;;;;;;20.85;100.00;101544.97;4989699;28;20060;-84
2023/08/15 20:48:08;;;;;;;22.20;8.25;;;;;;;20.85;100.00;101547.75;5011401;28;20036;-84
2023/08/15 20:50:33;;;;;;;23.40;7.75;;;;;;;20.88;100.00;101555.78;5007737;28;20109;-83
2023/08/15 20:52:59;;;;;;;34.10;7.80;;;;;;;20.90;100.00;101553.69;5001683;28;20459;-83
2023/08/15 20:55:24;;;;;;;31.30;8.02;;;;;;;20.96;100.00;101554.06;5011105;28;20492;-83
2023/08/15 20:57:51;;;;;;;33.10;7.72;;;;;;;20.93;100.00;101555.25;4992836;28;20172;-83
2023/08/15 21:00:17;;;;;;;25.25;7.15;;;;;;;20.94;100.00;101565.38;4981432;28;20057;-83
2023/08/15 21:02:42;;;;;;;29.30;7.35;;;;;;;20.90;100.00;101575.09;4999572;28;20092;-83
2023/08/15 21:05:09;;;;;;;33.75;8.10;;;;;;;20.73;100.00;101569.50;5005679;28;20038;-83
2023/08/15 21:07:35;;;;;;;25.00;7.60;;;;;;;20.70;100.00;101575.41;5014388;28;20381;-83
2023/08/15 21:10:00;;;;;;;29.58;8.45;;;;;;;20.76;100.00;101576.66;5012469;28;20021;-83
2023/08/15 21:12:26;;;;;;;22.75;7.03;;;;;;;20.90;100.00;101573.16;4998398;28;20038;-83
2023/08/15 21:14:51;;;;;;;26.55;7.47;;;;;;;20.74;100.00;101574.03;4988921;28;20061;-83
2023/08/15 21:17:16;;;;;;;26.15;7.88;;;;;;;20.80;100.00;101575.25;5009168;28;20133;-83
2023/08/15 21:19:42;;;;;;;30.98;8.50;;;;;;;20.71;100.00;101581.81;5009996;28;20516;-83
2023/08/15 21:22:07;;;;;;;25.75;8.50;;;;;;;20.62;100.00;101589.25;5013235;28;20041;-83
2023/08/15 21:24:34;;;;;;;37.05;8.27;;;;;;;20.62;100.00;101582.84;4986230;28;20055;-83
2023/08/15 21:27:00;;;;;;;34.10;8.10;;;;;;;20.75;100.00;101581.31;5006969;28;20030;-83
2023/08/15 21:29:26;;;;;;;22.67;8.48;;;;;;;20.80;100.00;101574.38;5002492;28;20044;-83
2023/08/15 21:31:52;;;;;;;28.38;8.13;;;;;;;20.66;100.00;101575.91;4985457;28;20492;-83
2023/08/15 21:34:17;;;;;;;27.17;8.55;;;;;;;20.62;100.00;101574.47;5009048;28;20138;-83
2023/08/15 21:36:43;;;;;;;26.80;8.73;;;;;;;20.56;100.00;101568.56;5008385;28;20030;-83
2023/08/15 21:39:08;;;;;;;26.33;9.10;;;;;;;20.47;100.00;101575.13;5003980;28;20394;-83
2023/08/15 21:41:34;;;;;;;33.53;8.55;;;;;;;20.50;100.00;101566.44;4992146;28;20491;-83
2023/08/15 21:43:59;;;;;;;37.10;10.00;;;;;;;20.46;100.00;101569.72;5026569;28;20029;-83
2023/08/15 21:46:25;;;;;;;29.83;9.73;;;;;;;20.42;100.00;101571.13;5001319;28;20034;-83
2023/08/15 21:48:50;;;;;;;24.33;9.85;;;;;;;20.41;100.00;101570.22;5007186;28;20037;-83
2023/08/15 21:51:15;;;;;;;27.00;9.40;;;;;;;20.36;100.00;101564.31;4990086;28;20029;-83
2023/08/15 21:53:41;;;;;;;20.08;8.98;;;;;;;20.40;100.00;101565.72;5024511;28;20029;-83
2023/08/15 21:56:07;;;;;;;31.15;9.68;;;;;;;20.35;100.00;101574.56;5021272;28;20029;-82
2023/08/15 21:58:34;;;;;;;39.05;10.63;;;;;;;20.35;100.00;101568.16;5023461;28;20099;-83
2023/08/15 22:00:59;;;;;;;27.20;10.00;;;;;;;20.32;100.00;101569.34;4991362;28;20029;-83
2023/08/15 22:03:25;;;;;;;23.98;9.07;;;;;;;20.42;100.00;101571.13;5026709;28;20044;-83
2023/08/15 22:05:50;;;;;;;33.60;9.48;;;;;;;20.31;100.00;101573.16;5010042;28;20057;-83
2023/08/15 22:08:16;;;;;;;48.90;11.45;;;;;;;20.30;100.00;101577.00;5027047;28;20038;-82
2023/08/15 22:10:41;;;;;;;30.58;9.82;;;;;;;20.25;100.00;101579.41;5012981;28;20044;-83
2023/08/15 22:13:07;;;;;;;23.38;10.05;;;;;;;20.26;100.00;101581.13;5023139;28;20033;-83
2023/08/15 22:15:32;;;;;;;23.65;9.65;;;;;;;20.31;100.00;101581.50;5018811;28;20582;-83
2023/08/15 22:17:58;;;;;;;27.88;8.77;;;;;;;20.29;100.00;101583.59;5014585;28;20065;-83
2023/08/15 22:20:23;;;;;;;34.47;10.07;;;;;;;20.16;100.00;101585.97;5028302;28;20538;-83
2023/08/15 22:22:50;;;;;;;25.45;8.85;;;;;;;20.18;100.00;101582.00;5018994;28;20033;-82
2023/08/15 22:25:17;;;;;;;24.92;8.75;;;;;;;20.16;100.00;101588.75;5027056;28;20080;-83
2023/08/15 22:27:44;;;;;;;23.45;9.77;;;;;;;20.12;100.00;101587.31;4993121;28;20025;-83
2023/08/15 22:30:12;;;;;;;30.40;8.50;;;;;;;20.08;100.00;101585.94;5014170;28;20141;-83
2023/08/15 22:32:37;;;;;;;21.67;8.15;;;;;;;20.06;100.00;101585.22;5018222;28;20124;-83
2023/08/15 22:35:03;;;;;;;24.50;8.90;;;;;;;20.09;100.00;101590.47;5011079;28;20113;-83
2023/08/15 22:37:28;;;;;;;24.75;9.50;;;;;;;20.04;100.00;101588.16;5015886;28;20452;-83
2023/08/15 22:39:55;;;;;;;29.40;8.20;;;;;;;20.11;100.00;101593.94;5016364;28;20120;-82
2023/08/15 22:42:22;;;;;;;32.25;7.97;;;;;;;20.07;100.00;101592.50;5025618;28;20116;-83
2023/08/15 22:44:48;;;;;;;27.02;8.35;;;;;;;19.98;100.00;101586.91;5017058;28;20029;-83
2023/08/15 22:47:14;;;;;;;21.00;9.27;;;;;;;20.05;100.00;101583.47;5019241;28;20723;-82
2023/08/15 22:49:39;;;;;;;22.17;7.25;;;;;;;19.91;100.00;101582.19;4988649;28;20053;-79
2023/08/15 22:52:05;;;;;;;22.92;7.38;;;;;;;19.87;100.00;101589.09;4990516;28;20037;-79
2023/08/15 22:54:32;;;;;;;17.73;7.22;;;;;;;19.86;100.00;101579.00;4988848;28;20527;-79
2023/08/15 22:56:59;;;;;;;25.70;6.70;;;;;;;19.85;100.00;101572.59;5003937;28;20038;-79
2023/08/15 22:59:24;;;;;;;21.17;7.10;;;;;;;19.66;100.00;101568.13;5010083;28;20040;-79
2023/08/15 23:01:50;;;;;;;19.40;6.75;;;;;;;19.66;100.00;101582.00;5033428;28;20372;-79
2023/08/15 23:04:15;;;;;;;18.40;7.03;;;;;;;19.60;100.00;101588.22;4987760;28;20041;-79
2023/08/15 23:06:40;;;;;;;18.95;7.40;;;;;;;19.50;100.00;101587.47;5023077;28;20025;-79
2023/08/15 23:09:11;;;;;;;15.60;6.95;;;;;;;19.49;100.00;101578.22;5008260;28;20075;-79
2023/08/15 23:11:40;;;;;;;28.42;8.20;;;;;;;19.53;100.00;101576.88;5008976;28;20087;-78
2023/08/15 23:14:05;;;;;;;34.92;7.85;;;;;;;19.53;100.00;101578.78;5022693;28;20038;-79
2023/08/15 23:16:31;;;;;;;18.90;6.68;;;;;;;19.47;100.00;101577.53;5015711;28;20032;-79
2023/08/15 23:18:56;;;;;;;21.20;7.15;;;;;;;19.65;100.00;101581.13;5015674;28;20057;-79
2023/08/15 23:21:21;;;;;;;17.42;6.50;;;;;;;19.66;100.00;101582.00;5008227;28;20388;-79
2023/08/15 23:23:47;;;;;;;24.33;7.05;;;;;;;19.54;100.00;101581.38;5022823;28;20498;-79
2023/08/15 23:26:12;;;;;;;19.33;6.93;;;;;;;19.61;100.00;101585.28;5023076;28;20032;-79
2023/08/15 23:28:39;;;;;;;18.95;7.32;;;;;;;19.52;100.00;101585.38;4998754;28;20114;-79
2023/08/15 23:31:04;;;;;;;17.00;6.72;;;;;;;19.52;100.00;101579.81;5012068;28;20272;-79
2023/08/15 23:33:34;;;;;;;22.73;7.15;;;;;;;19.59;100.00;101580.91;5015566;28;20502;-79
2023/08/15 23:36:00;;;;;;;18.33;7.43;;;;;;;19.54;100.00;101573.06;4999939;28;20025;-79
2023/08/15 23:38:25;;;;;;;21.63;6.93;;;;;;;19.47;100.00;101580.31;4996919;28;20038;-78
2023/08/15 23:40:52;;;;;;;23.52;7.78;;;;;;;19.48;100.00;101576.50;5023628;28;20034;-78
2023/08/15 23:43:18;;;;;;;23.35;7.85;;;;;;;19.38;100.00;101573.81;4987496;28;20040;-78
2023/08/15 23:45:46;;;;;;;17.88;7.57;;;;;;;19.25;100.00;101579.78;5017519;28;20041;-78
2023/08/15 23:48:12;;;;;;;17.75;7.78;;;;;;;19.28;100.00;101573.03;5013086;28;20054;-78
2023/08/15 23:50:37;;;;;;;27.92;8.70;;;;;;;19.23;100.00;101570.75;5014169;28;20152;-78
2023/08/15 23:53:03;;;;;;;31.38;8.32;;;;;;;19.15;100.00;101558.69;5008026;28;20480;-78
2023/08/15 23:55:28;;;;;;;23.60;8.38;;;;;;;19.19;100.00;101574.88;5028561;28;20037;-78
2023/08/15 23:57:54;;;;;;;19.48;7.82;;;;;;;19.21;100.00;101575.59;5004118;28;20488;-78
